Terminal Aerodrome Forecast
Issued by NWS

Home | Current Version | Previous Version | Text Only | Print | Product List | Glossary On
Versions: 1 2 3 4 5 6 7 8 9 10 11 12 13 14 15 16 17 18 19 20 21 22 23 24
000
FTUS41 KALY 071833 AAA
TAFPSF
TAF AMD
KPSF 071833Z 0719/0818 16008KT P6SM VCSH SCT025 BKN060
      TEMPO 0719/0722 1 1/2SM +SHRA BR BKN025 OVC040
     FM080000 19005KT P6SM SCT060
     FM080300 19006KT 5SM BR FEW008 BKN035
     FM080800 26008KT P6SM VCSH SCT008 BKN015
     FM081600 32010KT P6SM SCT015 BKN030=

USA.gov is the U.S. government's official web portal to all federal, state and local government web resources and services.